Time;durP1;ratioP1;P1;durP2;ratioP2;P2;SDS_P1;SDS_P2;PMS_P1;PMS_P2;Temp;Humidity;BMP_temperature;BMP_pressure;BME280_temperature;BME280_humidity;BME280_pressure;Samples;Min_cycle;Max_cycle;Signal;HPM_P1;HPM_P2
2022/11/03 00:01:00;;;;;;;4.67;3.53;;;;;;;7.05;100.00;100671.44;5065138;28;20229;-76
2022/11/03 00:03:26;;;;;;;4.77;3.07;;;;;;;7.02;100.00;100663.69;5052962;28;20229;-74
2022/11/03 00:06:04;;;;;;;3.27;2.97;;;;;;;7.01;100.00;100664.53;5059294;28;20275;-73
2022/11/03 00:08:33;;;;;;;4.17;3.23;;;;;;;6.99;100.00;100667.09;5059718;28;20185;-74
2022/11/03 00:11:10;;;;;;;5.50;3.20;;;;;;;6.99;100.00;100655.91;5058266;28;20632;-75
2022/11/03 00:13:38;;;;;;;4.63;3.50;;;;;;;6.97;100.00;100655.03;5057501;28;20194;-76
2022/11/03 00:16:04;;;;;;;5.33;3.83;;;;;;;6.96;100.00;100655.88;5058360;28;20195;-77
2022/11/03 00:18:29;;;;;;;5.87;4.00;;;;;;;6.94;100.00;100653.31;5058016;28;20229;-76
2022/11/03 00:21:05;;;;;;;4.37;3.63;;;;;;;6.90;100.00;100648.09;5060163;28;20708;-73
2022/11/03 00:23:33;;;;;;;5.47;3.87;;;;;;;6.84;100.00;100649.75;5058553;28;20199;-72
2022/11/03 00:26:06;;;;;;;5.23;3.53;;;;;;;6.82;100.00;100658.31;5058898;28;20945;-75
2022/11/03 00:28:33;;;;;;;7.23;4.07;;;;;;;6.79;100.00;100651.41;5060585;28;20202;-76
2022/11/03 00:31:05;;;;;;;3.77;3.13;;;;;;;6.76;100.00;100653.06;5058312;28;20185;-76
2022/11/03 00:33:31;;;;;;;8.10;3.50;;;;;;;6.70;100.00;100649.59;5060856;28;20206;-75
2022/11/03 00:35:58;;;;;;;7.50;3.87;;;;;;;6.66;100.00;100644.38;5054316;28;20795;-76
2022/11/03 00:38:24;;;;;;;9.23;3.73;;;;;;;6.61;100.00;100644.31;5056666;28;20674;-74
2022/11/03 00:40:53;;;;;;;7.90;4.20;;;;;;;6.58;100.00;100640.84;5059084;28;20213;-77
2022/11/03 00:43:20;;;;;;;6.53;3.53;;;;;;;6.53;100.00;100635.66;5056907;28;20187;-76
2022/11/03 00:45:46;;;;;;;6.07;3.87;;;;;;;6.50;100.00;100639.06;5060769;28;20591;-76
2022/11/03 00:48:29;;;;;;;6.47;4.27;;;;;;;6.47;100.00;100626.16;5060066;28;20178;-76
2022/11/03 00:51:09;;;;;;;11.27;4.57;;;;;;;6.46;100.00;100621.84;5058058;28;20188;-75
2022/11/03 00:53:46;;;;;;;7.07;4.60;;;;;;;6.43;100.00;100610.66;5058236;28;20243;-76
2022/11/03 00:56:17;;;;;;;6.40;4.03;;;;;;;6.39;100.00;100610.63;5073500;28;20202;-74
2022/11/03 00:58:43;;;;;;;10.87;4.10;;;;;;;6.37;100.00;100614.88;5065910;28;20807;-74
2022/11/03 01:01:14;;;;;;;13.57;4.33;;;;;;;6.32;100.00;100618.22;5076561;28;20206;-73
2022/11/03 01:06:48;;;;;;;9.47;3.93;;;;;;;6.27;100.00;100622.44;5059457;28;20198;-77
2022/11/03 01:09:11;;;;;;;10.63;4.20;;;;;;;6.20;100.00;100630.03;5054648;28;20698;-76
2022/11/03 01:11:42;;;;;;;7.37;3.63;;;;;;;6.18;100.00;100618.91;5059816;28;20175;-72
2022/11/03 01:14:13;;;;;;;13.87;4.43;;;;;;;6.18;100.00;100618.03;5060998;28;20186;-76
2022/11/03 01:16:39;;;;;;;6.43;3.40;;;;;;;6.15;100.00;100624.00;5060917;28;20678;-74
2022/11/03 01:19:04;;;;;;;6.50;3.60;;;;;;;6.14;100.00;100624.81;5059405;28;20210;-75
2022/11/03 01:21:30;;;;;;;9.97;4.17;;;;;;;6.13;100.00;100625.66;5062532;28;20196;-76
2022/11/03 01:23:55;;;;;;;11.77;4.20;;;;;;;6.13;100.00;100622.22;5056167;28;20213;-73
2022/11/03 01:26:21;;;;;;;12.30;4.07;;;;;;;6.13;100.00;100622.22;5058305;28;20195;-76
2022/11/03 01:28:47;;;;;;;8.30;4.13;;;;;;;6.13;100.00;100617.97;5058883;28;20243;-74
2022/11/03 01:31:21;;;;;;;6.73;3.70;;;;;;;6.16;100.00;100615.44;5059868;28;20190;-75
2022/11/03 01:33:49;;;;;;;6.20;3.80;;;;;;;6.12;100.00;100613.66;5071331;28;20305;-76
2022/11/03 01:36:15;;;;;;;6.97;4.13;;;;;;;6.11;100.00;100614.50;5059146;28;20247;-77
2022/11/03 01:38:41;;;;;;;8.97;4.60;;;;;;;6.09;100.00;100611.03;5057507;28;20597;-75
2022/11/03 01:41:12;;;;;;;11.73;3.70;;;;;;;6.06;100.00;100599.03;5058658;28;20187;-77
2022/11/03 01:43:38;;;;;;;11.03;3.83;;;;;;;6.06;100.00;100598.13;5064112;28;20194;-76
2022/11/03 01:46:10;;;;;;;9.27;4.30;;;;;;;6.02;100.00;100596.38;5059054;28;20201;-74
2022/11/03 01:48:41;;;;;;;8.70;4.47;;;;;;;6.00;100.00;100596.34;5066458;28;20625;-75
2022/11/03 01:51:11;;;;;;;10.70;3.83;;;;;;;5.99;100.00;100593.75;5060208;28;20192;-77
2022/11/03 01:53:42;;;;;;;6.80;3.80;;;;;;;5.97;100.00;100587.72;5056043;28;20192;-75
2022/11/03 01:56:10;;;;;;;6.50;3.23;;;;;;;5.93;100.00;100579.94;5062131;28;22114;-76
2022/11/03 01:58:39;;;;;;;3.97;3.17;;;;;;;5.90;100.00;100584.19;5060839;28;20336;-74
2022/11/03 02:01:04;;;;;;;6.93;3.93;;;;;;;5.88;100.00;100580.72;5066291;28;20211;-76
2022/11/03 02:03:39;;;;;;;4.87;3.00;;;;;;;5.87;100.00;100577.31;5062348;28;20186;-75
2022/11/03 02:06:05;;;;;;;3.43;3.13;;;;;;;5.85;100.00;100576.41;5064763;28;20198;-75
2022/11/03 02:08:50;;;;;;;4.97;3.10;;;;;;;5.87;100.00;100566.16;5065463;28;20243;-75
2022/11/03 02:13:59;;;;;;;3.57;3.00;;;;;;;5.88;100.00;100555.91;5062585;28;20668;-76
2022/11/03 02:16:28;;;;;;;4.43;3.43;;;;;;;5.84;100.00;100558.41;5061759;28;20186;-77
2022/11/03 02:18:56;;;;;;;7.53;2.90;;;;;;;5.79;100.00;100548.06;5057627;28;20269;-74
2022/11/03 02:21:41;;;;;;;5.40;3.33;;;;;;;5.74;100.00;100540.28;5065126;28;20193;-77
2022/11/03 02:24:15;;;;;;;8.10;3.30;;;;;;;5.71;100.00;100527.41;5062859;28;20257;-77
2022/11/03 02:26:46;;;;;;;4.37;3.37;;;;;;;5.67;100.00;100523.09;5056695;28;20660;-74
2022/11/03 02:29:12;;;;;;;3.67;3.33;;;;;;;5.63;100.00;100519.59;5065540;28;20351;-74
2022/11/03 02:31:42;;;;;;;8.50;4.17;;;;;;;5.62;100.00;100511.88;5058816;28;20188;-77
2022/11/03 02:34:10;;;;;;;4.43;3.57;;;;;;;5.62;100.00;100511.88;5059712;28;20218;-77
2022/11/03 02:36:38;;;;;;;3.77;3.00;;;;;;;5.67;100.00;100522.19;5060483;28;20214;-74
2022/11/03 02:39:17;;;;;;;3.63;3.20;;;;;;;5.65;100.00;100507.63;5063863;28;20222;-77
2022/11/03 02:41:45;;;;;;;4.63;3.00;;;;;;;5.63;100.00;100508.47;5063535;28;20261;-74
2022/11/03 02:44:15;;;;;;;5.57;3.63;;;;;;;5.61;100.00;100494.72;5059167;28;20862;-75
2022/11/03 02:46:43;;;;;;;7.70;3.77;;;;;;;5.59;100.00;100502.44;5060321;28;20195;-73
2022/11/03 02:49:08;;;;;;;4.53;3.60;;;;;;;5.60;100.00;100499.00;5057743;28;20212;-75
2022/11/03 02:51:34;;;;;;;4.67;3.70;;;;;;;5.59;100.00;100491.28;5058720;28;20189;-75
2022/11/03 02:54:22;;;;;;;4.70;3.90;;;;;;;5.59;100.00;100484.44;5061924;28;20181;-75
2022/11/03 02:57:11;;;;;;;4.30;3.50;;;;;;;5.62;100.00;100483.63;5056745;28;20195;-73
2022/11/03 02:59:44;;;;;;;4.33;3.43;;;;;;;5.63;100.00;100473.38;5056830;28;20226;-73
2022/11/03 03:02:15;;;;;;;6.63;3.37;;;;;;;5.65;100.00;100469.13;5057230;28;20190;-75
2022/11/03 03:04:46;;;;;;;4.57;3.57;;;;;;;5.67;100.00;100468.28;5059350;28;20242;-75
2022/11/03 03:07:19;;;;;;;3.60;3.07;;;;;;;5.69;100.00;100462.31;5062819;28;20197;-77
2022/11/03 03:09:57;;;;;;;4.77;3.63;;;;;;;5.68;100.00;100450.31;5058127;28;20203;-75
2022/11/03 03:12:25;;;;;;;4.67;3.30;;;;;;;5.67;100.00;100452.88;5058210;28;20255;-77
2022/11/03 03:14:55;;;;;;;4.30;3.23;;;;;;;5.67;100.00;100450.31;5061624;28;20192;-75
2022/11/03 03:17:45;;;;;;;5.63;3.30;;;;;;;5.65;100.00;100446.00;5060439;28;20397;-76
2022/11/03 03:20:23;;;;;;;4.13;3.50;;;;;;;5.65;100.00;100440.03;5064147;28;20681;-74
2022/11/03 03:22:55;;;;;;;4.63;3.77;;;;;;;5.66;100.00;100431.47;5068900;28;20561;-74
2022/11/03 03:25:44;;;;;;;4.23;3.63;;;;;;;5.66;100.00;100428.91;5058716;28;20558;-75
2022/11/03 03:28:17;;;;;;;5.50;3.30;;;;;;;5.67;100.00;100434.91;5062306;28;20185;-77
2022/11/03 03:30:45;;;;;;;5.47;3.40;;;;;;;5.71;100.00;100437.53;5063912;28;20183;-76
2022/11/03 03:33:12;;;;;;;4.30;3.37;;;;;;;5.74;100.00;100435.00;5060773;28;21199;-74
2022/11/03 03:35:41;;;;;;;3.47;3.07;;;;;;;5.77;100.00;100423.91;5062195;28;20210;-76
2022/11/03 03:38:18;;;;;;;4.40;3.30;;;;;;;5.80;100.00;100418.81;5057269;28;20206;-76
2022/11/03 03:40:49;;;;;;;5.87;3.43;;;;;;;5.78;100.00;100418.81;5055462;28;20292;-76
2022/11/03 03:43:15;;;;;;;4.10;3.27;;;;;;;5.74;100.00;100413.63;5070258;28;20196;-76
2022/11/03 03:45:44;;;;;;;4.40;3.10;;;;;;;5.71;100.00;100406.72;5058254;28;20191;-76
2022/11/03 03:48:10;;;;;;;3.90;3.40;;;;;;;5.70;100.00;100401.56;5059956;28;20190;-74
2022/11/03 03:50:38;;;;;;;3.87;3.13;;;;;;;5.68;100.00;100404.09;5057665;28;20677;-76
2022/11/03 03:53:08;;;;;;;5.30;3.17;;;;;;;5.70;100.00;100412.69;5064051;28;20188;-73
2022/11/03 03:55:41;;;;;;;3.47;3.10;;;;;;;5.68;100.00;100401.53;5055688;28;20293;-75
2022/11/03 03:58:10;;;;;;;3.53;3.00;;;;;;;5.66;100.00;100398.09;5059017;28;20217;-76
2022/11/03 04:00:38;;;;;;;3.90;2.90;;;;;;;5.65;100.00;100392.09;5060346;28;20202;-74
2022/11/03 04:03:05;;;;;;;5.10;3.07;;;;;;;5.65;100.00;100388.69;5060782;28;20212;-74
2022/11/03 04:05:30;;;;;;;3.37;2.77;;;;;;;5.65;100.00;100394.66;5059025;28;20606;-75
2022/11/03 04:07:57;;;;;;;3.57;3.03;;;;;;;5.64;100.00;100389.50;5060652;28;20218;-77
2022/11/03 04:10:23;;;;;;;3.63;3.23;;;;;;;5.63;100.00;100390.34;5060207;28;20198;-75
2022/11/03 04:23:47;;;;;;;3.57;3.27;;;;;;;5.57;100.00;100369.72;5060014;28;20339;-77
2022/11/03 04:26:15;;;;;;;3.43;2.80;;;;;;;5.55;100.00;100377.41;5067708;28;20285;-74
2022/11/03 04:28:41;;;;;;;5.53;3.00;;;;;;;5.54;100.00;100373.13;5052658;28;20206;-76
2022/11/03 04:31:15;;;;;;;3.43;2.97;;;;;;;5.52;100.00;100369.66;5059998;28;20273;-77
2022/11/03 04:33:41;;;;;;;3.40;3.10;;;;;;;5.50;100.00;100376.47;5054645;28;20237;-76
2022/11/03 04:36:15;;;;;;;3.23;2.70;;;;;;;5.47;100.00;100373.88;5057493;28;20237;-77
2022/11/03 04:38:42;;;;;;;3.43;3.13;;;;;;;5.46;100.00;100379.84;5057506;28;20612;-77
2022/11/03 04:41:23;;;;;;;3.93;2.90;;;;;;;5.45;100.00;100376.44;5061819;28;20190;-73
2022/11/03 04:43:50;;;;;;;4.23;3.10;;;;;;;5.44;100.00;100377.28;5055502;28;20183;-76
2022/11/03 04:46:20;;;;;;;3.73;2.97;;;;;;;5.42;100.00;100371.25;5058250;28;20316;-74
2022/11/03 04:48:46;;;;;;;3.83;3.20;;;;;;;5.43;100.00;100361.88;5051992;28;20303;-76
2022/11/03 04:51:18;;;;;;;4.20;2.73;;;;;;;5.39;100.00;100363.50;5059977;28;20258;-76
2022/11/03 04:53:49;;;;;;;4.50;2.90;;;;;;;5.37;100.00;100354.06;5056810;28;21255;-76
2022/11/03 04:56:18;;;;;;;3.20;2.77;;;;;;;5.35;100.00;100354.06;5057155;28;20754;-75
2022/11/03 04:58:46;;;;;;;3.37;3.07;;;;;;;5.34;100.00;100352.34;5055957;28;20215;-77
2022/11/03 05:01:14;;;;;;;3.53;3.10;;;;;;;5.33;100.00;100353.16;5059072;28;21251;-77
2022/11/03 05:03:41;;;;;;;4.80;3.30;;;;;;;5.30;100.00;100345.44;5058008;28;20240;-76
2022/11/03 05:06:19;;;;;;;3.20;2.90;;;;;;;5.30;100.00;100345.44;5062173;28;20660;-74
2022/11/03 05:08:49;;;;;;;3.00;2.70;;;;;;;5.28;100.00;100342.84;5060795;28;20223;-76
2022/11/03 05:11:30;;;;;;;3.57;2.93;;;;;;;5.29;100.00;100336.88;5050432;28;20186;-77
2022/11/03 05:13:59;;;;;;;3.00;2.70;;;;;;;5.31;100.00;100331.75;5055134;28;20190;-76
2022/11/03 05:16:24;;;;;;;4.10;2.97;;;;;;;5.34;100.00;100322.38;5054508;28;20684;-73
2022/11/03 05:18:50;;;;;;;3.20;2.90;;;;;;;5.36;100.00;100321.53;5054272;28;20216;-74
2022/11/03 05:21:20;;;;;;;3.30;2.80;;;;;;;5.35;100.00;100323.25;5056963;28;20303;-76
2022/11/03 05:23:49;;;;;;;3.10;2.80;;;;;;;5.37;100.00;100321.56;5053781;28;20282;-74
2022/11/03 05:26:23;;;;;;;4.07;3.10;;;;;;;5.39;100.00;100326.72;5060005;28;20255;-77
2022/11/03 05:28:58;;;;;;;3.53;2.90;;;;;;;5.40;100.00;100320.75;5055243;28;20198;-75
2022/11/03 05:31:29;;;;;;;4.70;3.07;;;;;;;5.42;100.00;100313.94;5058244;28;20197;-73
2022/11/03 05:34:00;;;;;;;4.23;3.00;;;;;;;5.42;100.00;100306.22;5054060;28;20190;-77
2022/11/03 05:36:29;;;;;;;4.53;3.60;;;;;;;5.41;100.00;100299.38;5060716;28;20276;-76
2022/11/03 05:39:00;;;;;;;3.30;2.73;;;;;;;5.40;100.00;100292.50;5057822;28;20219;-74
2022/11/03 05:41:27;;;;;;;3.97;3.03;;;;;;;5.37;100.00;100288.19;5060309;28;20193;-74
2022/11/03 05:44:01;;;;;;;4.17;3.10;;;;;;;5.33;100.00;100279.59;5057589;28;20267;-76
2022/11/03 05:46:29;;;;;;;4.63;3.20;;;;;;;5.30;100.00;100283.84;5056872;28;20221;-76
2022/11/03 05:48:55;;;;;;;4.90;3.17;;;;;;;5.28;100.00;100280.38;5056794;28;20878;-77
2022/11/03 05:51:23;;;;;;;4.87;3.30;;;;;;;5.26;100.00;100282.06;5058793;28;20273;-76
2022/11/03 05:54:00;;;;;;;3.63;3.30;;;;;;;5.26;100.00;100269.25;5055069;28;20239;-76
2022/11/03 05:56:25;;;;;;;3.33;3.03;;;;;;;5.27;100.00;100270.97;5058260;28;20204;-75
2022/11/03 05:58:54;;;;;;;5.97;3.37;;;;;;;5.29;100.00;100270.16;5056370;28;20225;-76
2022/11/03 06:01:29;;;;;;;3.87;3.40;;;;;;;5.32;100.00;100272.75;5061624;28;20547;-74
2022/11/03 06:03:56;;;;;;;3.60;3.30;;;;;;;5.33;100.00;100274.47;5058764;28;20194;-76
2022/11/03 06:06:25;;;;;;;3.60;3.30;;;;;;;5.36;100.00;100272.78;5060619;28;20195;-74
2022/11/03 06:08:51;;;;;;;5.47;2.90;;;;;;;5.39;100.00;100275.41;5058385;28;20198;-74
2022/11/03 06:11:29;;;;;;;3.53;2.87;;;;;;;5.41;100.00;100268.56;5062537;28;20184;-76
2022/11/03 06:13:56;;;;;;;3.93;3.10;;;;;;;5.44;100.00;100266.91;5053665;28;20193;-75
2022/11/03 06:16:28;;;;;;;3.07;2.63;;;;;;;5.47;100.00;100266.06;5059092;28;20198;-74
2022/11/03 06:18:53;;;;;;;4.80;2.87;;;;;;;5.49;100.00;100256.69;5055333;28;20258;-76
2022/11/03 06:21:23;;;;;;;3.60;2.70;;;;;;;5.53;100.00;100249.88;5070697;28;20270;-76
2022/11/03 06:23:48;;;;;;;3.93;3.40;;;;;;;5.58;100.00;100246.53;5060658;28;20189;-75
2022/11/03 06:26:19;;;;;;;3.37;2.60;;;;;;;5.65;100.00;100244.88;5061647;28;20207;-77
2022/11/03 06:28:46;;;;;;;3.97;2.77;;;;;;;5.71;100.00;100247.50;5059028;28;20294;-74
2022/11/03 06:31:20;;;;;;;3.70;3.10;;;;;;;5.77;100.00;100242.44;5056435;28;20214;-76
2022/11/03 06:33:45;;;;;;;3.97;3.10;;;;;;;5.80;100.00;100245.06;5054726;28;20240;-75
2022/11/03 06:36:33;;;;;;;4.17;2.93;;;;;;;5.86;100.00;100240.78;5061371;28;20764;-76
2022/11/03 06:39:08;;;;;;;4.67;3.07;;;;;;;5.89;100.00;100230.56;5056705;28;20288;-74
2022/11/03 06:41:35;;;;;;;3.53;2.83;;;;;;;5.91;100.00;100224.56;5053552;28;20194;-77
2022/11/03 06:44:14;;;;;;;5.20;3.07;;;;;;;5.93;100.00;100222.88;5061252;28;20220;-74
2022/11/03 06:46:40;;;;;;;5.10;3.30;;;;;;;5.94;100.00;100222.03;5051085;28;20639;-74
2022/11/03 06:49:26;;;;;;;3.17;2.87;;;;;;;5.99;100.00;100222.06;5060183;28;20205;-74
2022/11/03 06:51:51;;;;;;;5.63;3.20;;;;;;;6.05;100.00;100211.91;5049719;28;21094;-74
2022/11/03 06:54:21;;;;;;;4.67;3.00;;;;;;;6.11;100.00;100221.38;5058686;28;20198;-75
2022/11/03 06:56:49;;;;;;;4.13;2.80;;;;;;;6.19;100.00;100224.88;5059237;28;20289;-76
2022/11/03 06:59:16;;;;;;;3.53;2.73;;;;;;;6.29;100.00;100228.34;5056481;28;20297;-75
2022/11/03 07:01:44;;;;;;;4.97;3.40;;;;;;;6.39;100.00;100235.31;5062348;28;20196;-74
2022/11/03 07:04:20;;;;;;;4.67;3.10;;;;;;;6.46;100.00;100223.34;5058683;28;20195;-75
2022/11/03 07:06:47;;;;;;;3.83;3.10;;;;;;;6.55;100.00;100225.97;5063861;28;20190;-77
2022/11/03 07:09:18;;;;;;;4.03;2.97;;;;;;;6.62;100.00;100226.03;5059501;28;20207;-75
2022/11/03 07:11:49;;;;;;;3.13;2.83;;;;;;;6.68;100.00;100224.34;5064905;28;20655;-75
2022/11/03 07:14:16;;;;;;;3.07;2.70;;;;;;;6.74;100.00;100214.94;5055769;28;20271;-75
2022/11/03 07:16:52;;;;;;;4.97;3.20;;;;;;;6.80;100.00;100217.53;5061678;28;20753;-76
2022/11/03 07:19:26;;;;;;;4.43;2.73;;;;;;;6.86;100.00;100212.44;5070071;28;20214;-76
2022/11/03 07:21:56;;;;;;;4.27;3.00;;;;;;;6.92;100.00;100215.03;5063760;28;20281;-77
2022/11/03 07:24:28;;;;;;;3.10;2.90;;;;;;;7.00;100.00;100213.38;5067924;28;20192;-77
2022/11/03 07:27:26;;;;;;;3.57;2.77;;;;;;;7.11;100.00;100200.53;5057565;28;20211;-77
2022/11/03 07:29:57;;;;;;;3.07;2.70;;;;;;;7.21;100.00;100200.56;5052581;28;20221;-74
2022/11/03 07:32:28;;;;;;;5.40;2.63;;;;;;;7.28;100.00;100189.44;5060131;28;20887;-77
2022/11/03 07:35:10;;;;;;;3.93;2.70;;;;;;;7.40;100.00;100181.75;5059661;28;20194;-74
2022/11/03 07:37:36;;;;;;;6.17;3.53;;;;;;;7.47;100.00;100170.59;5061164;28;20234;-76
2022/11/03 07:40:01;;;;;;;4.67;2.87;;;;;;;7.53;100.00;100163.75;5060946;28;20661;-77
2022/11/03 07:42:27;;;;;;;4.40;3.00;;;;;;;7.60;100.00;100155.16;5058650;28;20214;-76
2022/11/03 07:44:55;;;;;;;4.07;2.53;;;;;;;7.65;100.00;100157.75;5058247;28;20884;-75
2022/11/03 07:47:25;;;;;;;4.70;3.10;;;;;;;7.69;100.00;100146.59;5066055;28;20196;-75
2022/11/03 07:49:51;;;;;;;4.07;2.73;;;;;;;7.74;100.00;100143.16;5071099;28;20741;-77
2022/11/03 07:52:23;;;;;;;3.20;2.90;;;;;;;7.82;100.00;100142.31;5061272;28;20554;-75
2022/11/03 07:54:50;;;;;;;4.47;2.50;;;;;;;7.90;100.00;100149.19;5063023;28;20186;-76
2022/11/03 07:57:25;;;;;;;4.43;3.00;;;;;;;7.98;100.00;100141.44;5065538;28;20196;-77
2022/11/03 07:59:55;;;;;;;7.70;5.33;;;;;;;8.06;100.00;100141.44;5068380;28;20266;-77
2022/11/03 08:02:46;;;;;;;4.73;3.67;;;;;;;8.15;100.00;100136.25;5057368;28;20216;-75
2022/11/03 08:05:12;;;;;;;5.57;3.07;;;;;;;8.25;100.00;100131.97;5062727;28;20280;-75
2022/11/03 08:07:37;;;;;;;4.63;3.00;;;;;;;8.35;100.00;100128.47;5059679;28;20283;-76
2022/11/03 08:10:03;;;;;;;4.77;2.80;;;;;;;8.41;100.00;100127.59;5068228;28;20222;-76
2022/11/03 08:12:29;;;;;;;4.83;3.00;;;;;;;8.48;100.00;100126.78;5067437;28;20203;-75
2022/11/03 08:14:54;;;;;;;3.93;3.10;;;;;;;8.54;100.00;100126.78;5064520;28;20194;-77
2022/11/03 08:17:19;;;;;;;3.20;2.53;;;;;;;8.62;100.00;100118.13;5072106;28;20185;-76
2022/11/03 08:19:44;;;;;;;4.70;3.20;;;;;;;8.68;100.00;100120.69;5067459;28;20217;-75
2022/11/03 08:22:10;;;;;;;4.03;2.80;;;;;;;8.78;100.00;100117.22;5062385;28;20193;-76
2022/11/03 08:24:35;;;;;;;3.13;2.37;;;;;;;8.89;100.00;100117.16;5067045;28;20195;-74
2022/11/03 08:27:02;;;;;;;3.80;2.87;;;;;;;9.01;100.00;100123.97;5079250;28;20677;-74
2022/11/03 08:29:27;;;;;;;3.03;2.70;;;;;;;9.13;100.00;100112.72;5090301;28;20202;-75
2022/11/03 08:31:53;;;;;;;3.83;2.70;;;;;;;9.29;100.00;100113.50;5070715;28;20205;-76
2022/11/03 08:34:19;;;;;;;4.60;2.60;;;;;;;9.37;100.00;100111.72;5063765;28;20189;-76
2022/11/03 08:36:44;;;;;;;2.97;2.30;;;;;;;9.45;100.00;100115.09;5065273;28;20221;-76
2022/11/03 08:39:10;;;;;;;4.20;2.63;;;;;;;9.54;100.00;100103.00;5063372;28;20220;-77
2022/11/03 08:41:35;;;;;;;3.97;2.40;;;;;;;9.61;100.00;100099.47;5058706;28;20214;-77
2022/11/03 08:44:00;;;;;;;3.30;2.40;;;;;;;9.68;100.00;100103.72;5056165;28;20866;-77
2022/11/03 08:46:26;;;;;;;4.37;3.03;;;;;;;9.76;100.00;100104.50;5057518;28;20194;-76
2022/11/03 08:48:51;;;;;;;4.63;3.03;;;;;;;9.85;100.00;100094.97;5056347;28;20770;-77
2022/11/03 08:51:17;;;;;;;4.53;2.80;;;;;;;9.94;100.00;100089.72;5064705;28;20215;-77
2022/11/03 08:53:42;;;;;;;4.23;2.93;;;;;;;10.03;100.00;100086.19;5060374;28;20661;-75
2022/11/03 08:56:08;;;;;;;3.43;3.10;;;;;;;10.14;100.00;100088.66;5063404;28;20317;-76
2022/11/03 08:58:34;;;;;;;5.53;3.47;;;;;;;10.27;100.00;100084.22;5056544;28;20243;-77
2022/11/03 09:00:59;;;;;;;4.90;3.43;;;;;;;10.36;100.00;100090.13;5059329;28;20277;-76
2022/11/03 09:03:25;;;;;;;5.93;2.73;;;;;;;10.42;100.00;100076.34;5060455;28;20209;-75
2022/11/03 09:05:50;;;;;;;3.73;2.87;;;;;;;10.53;100.00;100078.78;5055219;28;20860;-76
2022/11/03 09:08:16;;;;;;;4.93;2.60;;;;;;;10.67;100.00;100074.28;5066685;28;20210;-77
2022/11/03 09:10:41;;;;;;;3.00;2.20;;;;;;;10.87;100.00;100064.56;5061697;28;20210;-75
2022/11/03 09:13:07;;;;;;;3.40;2.20;;;;;;;11.01;100.00;100064.34;5062563;28;20193;-77
2022/11/03 09:15:32;;;;;;;4.73;2.50;;;;;;;11.11;100.00;100051.25;5066722;28;20192;-77
2022/11/03 09:17:57;;;;;;;3.40;2.70;;;;;;;11.16;100.00;100053.75;5068064;28;20205;-75
2022/11/03 09:20:23;;;;;;;3.73;2.50;;;;;;;11.17;100.00;100052.88;5060069;28;20201;-76
2022/11/03 09:22:49;;;;;;;2.73;2.27;;;;;;;11.24;100.00;100059.69;5059400;28;20186;-76
2022/11/03 09:25:15;;;;;;;3.33;2.53;;;;;;;11.31;100.00;100052.69;5066524;28;20186;-76
2022/11/03 09:27:40;;;;;;;4.80;2.93;;;;;;;11.34;100.00;100047.47;5063643;28;20200;-75
2022/11/03 09:30:06;;;;;;;3.10;2.53;;;;;;;11.39;100.00;100037.00;5060564;28;20568;-76
2022/11/03 09:32:32;;;;;;;3.63;2.43;;;;;;;11.44;100.00;100036.06;5067071;28;20188;-76
2022/11/03 09:34:57;;;;;;;4.33;2.50;;;;;;;11.47;100.00;100040.31;5066319;28;20315;-77
2022/11/03 09:37:23;;;;;;;4.23;2.87;;;;;;;11.44;100.00;100033.47;5062818;28;20197;-77
2022/11/03 09:39:48;;;;;;;4.03;2.70;;;;;;;11.40;100.00;100028.38;5060599;28;20227;-76
2022/11/03 09:42:15;;;;;;;3.87;2.80;;;;;;;11.37;100.00;100023.22;5061449;28;20594;-77
2022/11/03 09:44:40;;;;;;;3.70;2.50;;;;;;;11.36;100.00;100018.91;5059082;28;20197;-77
2022/11/03 09:47:06;;;;;;;4.80;3.20;;;;;;;11.36;100.00;100017.16;5057076;28;20917;-76
2022/11/03 09:49:33;;;;;;;3.93;2.90;;;;;;;11.36;100.00;100019.75;5060261;28;20233;-77
2022/11/03 09:52:02;;;;;;;4.83;2.90;;;;;;;11.41;100.00;100025.72;5055228;28;20209;-77
2022/11/03 09:54:28;;;;;;;5.27;3.00;;;;;;;11.48;100.00;100013.53;5066895;28;20198;-76
2022/11/03 09:56:57;;;;;;;4.03;3.03;;;;;;;11.57;100.00;100018.53;5063017;28;20201;-77
2022/11/03 09:59:23;;;;;;;3.03;2.70;;;;;;;11.65;100.00;100018.41;5062294;28;20264;-77
2022/11/03 10:01:52;;;;;;;4.10;3.13;;;;;;;11.70;100.00;100007.97;5059859;28;20187;-76
2022/11/03 10:04:24;;;;;;;4.20;3.00;;;;;;;11.75;100.00;99995.78;5063897;28;20195;-77
2022/11/03 10:06:50;;;;;;;4.53;3.43;;;;;;;11.83;100.00;99996.50;5066684;28;20291;-75
2022/11/03 10:09:17;;;;;;;6.60;3.87;;;;;;;11.83;100.00;99988.72;5066708;28;20633;-76
2022/11/03 10:11:44;;;;;;;4.47;3.40;;;;;;;11.86;100.00;99988.66;5080572;28;20199;-77
2022/11/03 10:14:13;;;;;;;5.47;4.17;;;;;;;11.84;100.00;99986.97;5087109;28;20263;-76
2022/11/03 10:16:40;;;;;;;4.63;3.23;;;;;;;11.85;100.00;99989.56;5062103;28;20577;-76
2022/11/03 10:19:10;;;;;;;5.93;3.87;;;;;;;11.86;100.00;99983.47;5089039;28;20260;-76
2022/11/03 10:21:37;;;;;;;4.00;3.60;;;;;;;11.93;100.00;99975.56;5094289;28;20202;-76
2022/11/03 10:24:03;;;;;;;4.67;4.00;;;;;;;11.97;100.00;99969.44;5086056;28;20259;-75
2022/11/03 10:26:34;;;;;;;3.90;3.50;;;;;;;12.04;100.00;99971.03;5090167;28;20189;-76
2022/11/03 10:29:05;;;;;;;4.43;3.60;;;;;;;12.16;100.00;99960.44;5090566;28;20267;-76
2022/11/03 10:31:40;;;;;;;4.47;3.57;;;;;;;12.28;100.00;99948.09;5095793;28;20205;-75
2022/11/03 10:34:35;;;;;;;8.47;3.87;;;;;;;12.33;100.00;99954.88;5089262;28;20199;-76
2022/11/03 10:37:19;;;;;;;3.70;3.20;;;;;;;12.41;100.00;99943.47;5082781;28;20197;-75
2022/11/03 10:39:46;;;;;;;6.00;3.40;;;;;;;12.43;100.00;99939.09;5065567;28;21185;-75
2022/11/03 10:42:28;;;;;;;4.80;3.33;;;;;;;12.46;100.00;99939.03;5063550;28;20185;-76
2022/11/03 10:45:09;;;;;;;3.93;3.20;;;;;;;12.47;100.00;99919.97;5059949;28;20199;-75
2022/11/03 10:47:34;;;;;;;3.77;2.70;;;;;;;12.51;100.00;99911.25;5066014;28;20181;-76
2022/11/03 10:50:13;;;;;;;3.63;2.77;;;;;;;12.61;100.00;99915.31;5070334;28;20209;-75
2022/11/03 10:52:39;;;;;;;3.87;2.90;;;;;;;12.67;100.00;99910.91;5062872;28;20180;-77
2022/11/03 10:55:05;;;;;;;3.43;2.73;;;;;;;12.71;100.00;99902.13;5061294;28;20263;-76
2022/11/03 10:57:31;;;;;;;4.43;2.90;;;;;;;12.76;100.00;99901.16;5061885;28;20185;-76
2022/11/03 10:59:57;;;;;;;3.20;2.70;;;;;;;12.81;100.00;99882.84;5060777;28;20211;-76
2022/11/03 11:02:30;;;;;;;3.50;2.70;;;;;;;12.92;100.00;99882.59;5060348;28;20191;-76
2022/11/03 11:05:01;;;;;;;5.03;3.87;;;;;;;12.93;100.00;99860.91;5064179;28;20696;-77
2022/11/03 11:07:37;;;;;;;3.73;2.97;;;;;;;12.96;100.00;99866.88;5066311;28;20717;-76
2022/11/03 11:10:07;;;;;;;4.33;3.00;;;;;;;13.05;100.00;99859.72;5069918;28;20204;-76
2022/11/03 11:12:33;;;;;;;4.13;3.20;;;;;;;13.08;100.00;99847.50;5061532;28;20285;-77
2022/11/03 11:15:01;;;;;;;4.67;3.00;;;;;;;13.13;100.00;99855.19;5065046;28;20272;-77
2022/11/03 11:17:35;;;;;;;4.47;3.00;;;;;;;13.17;100.00;99845.56;5062276;28;20189;-77
2022/11/03 11:20:33;;;;;;;3.20;2.90;;;;;;;13.23;100.00;99848.03;5064277;28;20314;-76
2022/11/03 11:23:26;;;;;;;3.77;2.90;;;;;;;13.27;100.00;99845.28;5059099;28;20197;-77
2022/11/03 11:26:16;;;;;;;3.97;2.73;;;;;;;13.30;100.00;99844.34;5057868;28;20190;-77
2022/11/03 11:29:32;;;;;;;5.53;3.60;;;;;;;13.30;100.00;99825.31;5057843;28;20284;-76
2022/11/03 11:31:58;;;;;;;5.47;3.40;;;;;;;13.34;100.00;99821.72;4961939;28;20267;-77
2022/11/03 11:34:35;;;;;;;3.77;2.97;;;;;;;13.38;100.00;99816.41;4964733;28;20197;-76
2022/11/03 11:37:01;;;;;;;4.03;3.33;;;;;;;13.40;100.00;99806.81;5022212;28;20196;-76
2022/11/03 11:39:26;;;;;;;4.37;3.50;;;;;;;13.41;100.00;99805.94;5063556;28;20205;-76
2022/11/03 11:42:13;;;;;;;4.00;3.00;;;;;;;13.38;100.00;99803.41;5064161;28;20280;-76
2022/11/03 11:44:38;;;;;;;4.10;3.10;;;;;;;13.33;100.00;99797.50;5062180;28;20194;-76
2022/11/03 11:47:23;;;;;;;4.80;2.70;;;;;;;13.29;100.00;99792.41;5061221;28;20186;-77
2022/11/03 11:49:59;;;;;;;3.77;2.90;;;;;;;13.29;100.00;99788.06;5064583;28;20900;-76
2022/11/03 11:52:26;;;;;;;3.43;2.73;;;;;;;13.30;100.00;99776.78;5061404;28;20218;-77
2022/11/03 11:54:51;;;;;;;4.50;2.97;;;;;;;13.30;100.00;99778.53;5058277;28;20212;-78